sensor_id;sensor_type;location;lat;lon;timestamp;P1;durP1;ratioP1;P2;durP2;ratioP2
66169;SDS011;52971;44.024;20.456;2022-11-11T00:00:32;54.40;;;35.00;;
66169;SDS011;52971;44.024;20.456;2022-11-11T00:02:58;51.45;;;32.90;;
66169;SDS011;52971;44.024;20.456;2022-11-11T00:05:24;45.53;;;31.50;;
66169;SDS011;52971;44.024;20.456;2022-11-11T00:07:51;45.92;;;31.60;;
66169;SDS011;52971;44.024;20.456;2022-11-11T00:10:17;42.00;;;29.63;;
66169;SDS011;52971;44.024;20.456;2022-11-11T00:12:43;46.75;;;30.90;;
66169;SDS011;52971;44.024;20.456;2022-11-11T00:15:10;49.67;;;31.83;;
66169;SDS011;52971;44.024;20.456;2022-11-11T00:17:36;41.17;;;28.27;;
66169;SDS011;52971;44.024;20.456;2022-11-11T00:20:20;47.95;;;28.63;;
66169;SDS011;52971;44.024;20.456;2022-11-11T00:23:04;39.42;;;27.83;;
66169;SDS011;52971;44.024;20.456;2022-11-11T00:25:51;46.92;;;30.27;;
66169;SDS011;52971;44.024;20.456;2022-11-11T00:28:18;43.85;;;28.33;;
66169;SDS011;52971;44.024;20.456;2022-11-11T00:30:44;41.28;;;27.65;;
66169;SDS011;52971;44.024;20.456;2022-11-11T00:33:10;41.78;;;29.40;;
66169;SDS011;52971;44.024;20.456;2022-11-11T00:35:35;44.20;;;28.85;;
66169;SDS011;52971;44.024;20.456;2022-11-11T00:38:19;44.05;;;28.63;;
66169;SDS011;52971;44.024;20.456;2022-11-11T00:41:03;40.53;;;27.15;;
66169;SDS011;52971;44.024;20.456;2022-11-11T00:43:28;42.10;;;28.65;;
66169;SDS011;52971;44.024;20.456;2022-11-11T00:45:54;43.47;;;27.35;;
66169;SDS011;52971;44.024;20.456;2022-11-11T00:48:40;40.03;;;26.23;;
66169;SDS011;52971;44.024;20.456;2022-11-11T00:51:24;37.93;;;24.73;;
66169;SDS011;52971;44.024;20.456;2022-11-11T00:53:50;35.40;;;23.83;;
66169;SDS011;52971;44.024;20.456;2022-11-11T00:56:15;39.88;;;25.15;;
66169;SDS011;52971;44.024;20.456;2022-11-11T00:58:41;38.75;;;24.85;;
66169;SDS011;52971;44.024;20.456;2022-11-11T01:01:06;36.65;;;24.52;;
66169;SDS011;52971;44.024;20.456;2022-11-11T01:03:31;37.58;;;23.83;;
66169;SDS011;52971;44.024;20.456;2022-11-11T01:06:00;33.17;;;22.40;;
66169;SDS011;52971;44.024;20.456;2022-11-11T01:08:26;34.85;;;23.45;;
66169;SDS011;52971;44.024;20.456;2022-11-11T01:10:52;32.45;;;22.10;;
66169;SDS011;52971;44.024;20.456;2022-11-11T01:13:21;39.25;;;25.08;;
66169;SDS011;52971;44.024;20.456;2022-11-11T01:15:48;36.60;;;24.83;;
66169;SDS011;52971;44.024;20.456;2022-11-11T01:18:16;33.58;;;22.88;;
66169;SDS011;52971;44.024;20.456;2022-11-11T01:20:43;38.00;;;25.30;;
66169;SDS011;52971;44.024;20.456;2022-11-11T01:23:10;37.50;;;24.98;;
66169;SDS011;52971;44.024;20.456;2022-11-11T01:25:36;35.15;;;24.60;;
66169;SDS011;52971;44.024;20.456;2022-11-11T01:28:03;34.30;;;20.98;;
66169;SDS011;52971;44.024;20.456;2022-11-11T01:30:30;30.00;;;20.05;;
66169;SDS011;52971;44.024;20.456;2022-11-11T01:32:56;30.17;;;20.27;;
66169;SDS011;52971;44.024;20.456;2022-11-11T01:35:22;30.85;;;20.75;;
66169;SDS011;52971;44.024;20.456;2022-11-11T01:37:48;31.48;;;20.15;;
66169;SDS011;52971;44.024;20.456;2022-11-11T01:40:13;28.83;;;20.10;;
66169;SDS011;52971;44.024;20.456;2022-11-11T01:42:46;28.33;;;17.73;;
66169;SDS011;52971;44.024;20.456;2022-11-11T01:48:37;30.67;;;18.33;;
66169;SDS011;52971;44.024;20.456;2022-11-11T01:53:57;25.35;;;17.65;;
66169;SDS011;52971;44.024;20.456;2022-11-11T01:56:26;25.65;;;17.45;;
66169;SDS011;52971;44.024;20.456;2022-11-11T01:58:53;27.13;;;17.13;;
66169;SDS011;52971;44.024;20.456;2022-11-11T02:01:21;27.08;;;16.20;;
66169;SDS011;52971;44.024;20.456;2022-11-11T02:03:48;29.70;;;18.00;;
66169;SDS011;52971;44.024;20.456;2022-11-11T02:06:34;26.67;;;18.02;;
66169;SDS011;52971;44.024;20.456;2022-11-11T02:09:01;28.80;;;18.45;;
66169;SDS011;52971;44.024;20.456;2022-11-11T02:11:29;28.60;;;19.02;;
66169;SDS011;52971;44.024;20.456;2022-11-11T02:14:14;30.45;;;20.48;;
66169;SDS011;52971;44.024;20.456;2022-11-11T02:16:58;30.95;;;20.67;;
66169;SDS011;52971;44.024;20.456;2022-11-11T02:19:28;30.67;;;20.20;;
66169;SDS011;52971;44.024;20.456;2022-11-11T02:25:09;32.63;;;18.73;;
66169;SDS011;52971;44.024;20.456;2022-11-11T02:27:37;29.90;;;18.83;;
66169;SDS011;52971;44.024;20.456;2022-11-11T02:30:06;28.15;;;18.58;;
66169;SDS011;52971;44.024;20.456;2022-11-11T02:32:40;28.38;;;18.98;;
66169;SDS011;52971;44.024;20.456;2022-11-11T02:35:13;29.02;;;18.38;;
66169;SDS011;52971;44.024;20.456;2022-11-11T02:37:45;29.90;;;18.40;;
66169;SDS011;52971;44.024;20.456;2022-11-11T02:40:16;25.58;;;17.88;;
66169;SDS011;52971;44.024;20.456;2022-11-11T02:42:47;30.92;;;18.50;;
66169;SDS011;52971;44.024;20.456;2022-11-11T02:45:12;28.55;;;18.45;;
66169;SDS011;52971;44.024;20.456;2022-11-11T02:47:38;27.40;;;17.77;;
66169;SDS011;52971;44.024;20.456;2022-11-11T02:50:04;28.55;;;17.05;;
66169;SDS011;52971;44.024;20.456;2022-11-11T02:52:30;29.20;;;17.98;;
66169;SDS011;52971;44.024;20.456;2022-11-11T02:54:56;26.63;;;18.35;;
66169;SDS011;52971;44.024;20.456;2022-11-11T02:57:21;30.13;;;17.92;;
66169;SDS011;52971;44.024;20.456;2022-11-11T02:59:47;27.33;;;18.65;;
66169;SDS011;52971;44.024;20.456;2022-11-11T03:02:12;27.27;;;17.88;;
66169;SDS011;52971;44.024;20.456;2022-11-11T03:04:38;28.23;;;18.77;;
66169;SDS011;52971;44.024;20.456;2022-11-11T03:07:04;27.23;;;17.58;;
66169;SDS011;52971;44.024;20.456;2022-11-11T03:09:30;28.30;;;17.05;;
66169;SDS011;52971;44.024;20.456;2022-11-11T03:11:56;27.83;;;18.10;;
66169;SDS011;52971;44.024;20.456;2022-11-11T03:14:21;27.30;;;16.90;;
66169;SDS011;52971;44.024;20.456;2022-11-11T03:16:47;24.58;;;16.75;;
66169;SDS011;52971;44.024;20.456;2022-11-11T03:19:31;25.75;;;16.45;;
66169;SDS011;52971;44.024;20.456;2022-11-11T03:21:57;26.30;;;16.70;;
66169;SDS011;52971;44.024;20.456;2022-11-11T03:24:23;28.08;;;18.08;;
66169;SDS011;52971;44.024;20.456;2022-11-11T03:26:49;27.85;;;17.80;;
66169;SDS011;52971;44.024;20.456;2022-11-11T03:29:14;27.08;;;17.25;;
66169;SDS011;52971;44.024;20.456;2022-11-11T03:31:40;26.52;;;17.10;;
66169;SDS011;52971;44.024;20.456;2022-11-11T03:34:07;29.13;;;17.17;;
66169;SDS011;52971;44.024;20.456;2022-11-11T03:36:44;25.40;;;15.68;;
66169;SDS011;52971;44.024;20.456;2022-11-11T03:39:39;30.08;;;17.33;;
66169;SDS011;52971;44.024;20.456;2022-11-11T03:42:04;29.05;;;17.38;;
66169;SDS011;52971;44.024;20.456;2022-11-11T03:44:30;26.35;;;16.92;;
66169;SDS011;52971;44.024;20.456;2022-11-11T04:09:39;24.05;;;16.50;;
66169;SDS011;52971;44.024;20.456;2022-11-11T04:12:23;28.30;;;17.42;;
66169;SDS011;52971;44.024;20.456;2022-11-11T04:14:49;25.38;;;16.15;;
66169;SDS011;52971;44.024;20.456;2022-11-11T04:17:33;25.92;;;15.88;;
66169;SDS011;52971;44.024;20.456;2022-11-11T04:19:58;29.05;;;17.48;;
66169;SDS011;52971;44.024;20.456;2022-11-11T04:22:42;27.48;;;16.20;;
66169;SDS011;52971;44.024;20.456;2022-11-11T04:25:08;25.98;;;16.60;;
66169;SDS011;52971;44.024;20.456;2022-11-11T04:27:55;23.25;;;16.52;;
66169;SDS011;52971;44.024;20.456;2022-11-11T04:30:41;26.02;;;15.57;;
66169;SDS011;52971;44.024;20.456;2022-11-11T04:33:08;25.77;;;17.15;;
66169;SDS011;52971;44.024;20.456;2022-11-11T04:35:33;27.35;;;16.48;;
66169;SDS011;52971;44.024;20.456;2022-11-11T04:37:59;27.52;;;16.45;;
66169;SDS011;52971;44.024;20.456;2022-11-11T04:40:43;25.45;;;16.95;;
66169;SDS011;52971;44.024;20.456;2022-11-11T04:43:27;26.20;;;16.25;;
66169;SDS011;52971;44.024;20.456;2022-11-11T04:45:52;27.95;;;16.40;;
66169;SDS011;52971;44.024;20.456;2022-11-11T04:48:17;25.75;;;16.33;;
66169;SDS011;52971;44.024;20.456;2022-11-11T04:50:45;27.30;;;16.48;;
66169;SDS011;52971;44.024;20.456;2022-11-11T04:53:11;22.73;;;15.60;;
66169;SDS011;52971;44.024;20.456;2022-11-11T04:55:38;25.77;;;15.50;;
66169;SDS011;52971;44.024;20.456;2022-11-11T05:00:50;24.90;;;16.63;;
66169;SDS011;52971;44.024;20.456;2022-11-11T05:03:16;29.73;;;16.25;;
66169;SDS011;52971;44.024;20.456;2022-11-11T05:05:46;27.67;;;16.15;;
66169;SDS011;52971;44.024;20.456;2022-11-11T05:08:32;27.70;;;16.45;;
66169;SDS011;52971;44.024;20.456;2022-11-11T05:11:19;23.52;;;15.05;;
66169;SDS011;52971;44.024;20.456;2022-11-11T05:13:45;25.70;;;16.50;;
66169;SDS011;52971;44.024;20.456;2022-11-11T05:16:30;27.48;;;15.88;;
66169;SDS011;52971;44.024;20.456;2022-11-11T05:19:17;27.23;;;16.58;;
66169;SDS011;52971;44.024;20.456;2022-11-11T05:22:24;24.52;;;16.17;;
66169;SDS011;52971;44.024;20.456;2022-11-11T05:24:50;26.20;;;15.82;;
66169;SDS011;52971;44.024;20.456;2022-11-11T05:27:34;25.65;;;15.93;;
66169;SDS011;52971;44.024;20.456;2022-11-11T05:30:00;23.25;;;14.27;;
66169;SDS011;52971;44.024;20.456;2022-11-11T05:32:25;25.33;;;15.35;;
66169;SDS011;52971;44.024;20.456;2022-11-11T05:34:51;25.00;;;15.43;;
66169;SDS011;52971;44.024;20.456;2022-11-11T05:37:17;27.02;;;15.52;;
66169;SDS011;52971;44.024;20.456;2022-11-11T05:39:43;25.05;;;15.45;;
66169;SDS011;52971;44.024;20.456;2022-11-11T05:42:09;26.00;;;15.52;;
66169;SDS011;52971;44.024;20.456;2022-11-11T05:44:35;23.98;;;15.60;;
66169;SDS011;52971;44.024;20.456;2022-11-11T05:47:01;27.25;;;17.02;;
66169;SDS011;52971;44.024;20.456;2022-11-11T05:49:26;30.23;;;16.23;;
66169;SDS011;52971;44.024;20.456;2022-11-11T05:51:52;26.77;;;17.25;;
66169;SDS011;52971;44.024;20.456;2022-11-11T05:54:19;26.08;;;16.92;;
66169;SDS011;52971;44.024;20.456;2022-11-11T05:56:45;24.73;;;15.80;;
66169;SDS011;52971;44.024;20.456;2022-11-11T05:59:10;26.55;;;15.60;;
66169;SDS011;52971;44.024;20.456;2022-11-11T06:01:36;27.42;;;15.68;;
66169;SDS011;52971;44.024;20.456;2022-11-11T06:04:02;23.95;;;16.30;;
66169;SDS011;52971;44.024;20.456;2022-11-11T06:06:29;25.50;;;15.10;;
66169;SDS011;52971;44.024;20.456;2022-11-11T06:08:54;29.45;;;17.00;;
66169;SDS011;52971;44.024;20.456;2022-11-11T06:11:20;25.65;;;15.27;;
66169;SDS011;52971;44.024;20.456;2022-11-11T06:13:45;47.38;;;19.33;;
66169;SDS011;52971;44.024;20.456;2022-11-11T06:16:11;23.27;;;15.52;;
66169;SDS011;52971;44.024;20.456;2022-11-11T06:18:36;23.60;;;15.95;;
66169;SDS011;52971;44.024;20.456;2022-11-11T06:21:02;25.60;;;15.75;;
66169;SDS011;52971;44.024;20.456;2022-11-11T06:23:28;23.27;;;14.70;;
66169;SDS011;52971;44.024;20.456;2022-11-11T06:25:54;23.75;;;14.75;;
66169;SDS011;52971;44.024;20.456;2022-11-11T06:28:41;21.02;;;15.27;;
66169;SDS011;52971;44.024;20.456;2022-11-11T06:31:12;21.02;;;13.95;;
66169;SDS011;52971;44.024;20.456;2022-11-11T06:33:40;26.10;;;15.65;;
66169;SDS011;52971;44.024;20.456;2022-11-11T06:36:06;22.48;;;13.93;;
66169;SDS011;52971;44.024;20.456;2022-11-11T06:38:32;31.00;;;16.58;;
66169;SDS011;52971;44.024;20.456;2022-11-11T06:40:58;24.00;;;14.70;;
66169;SDS011;52971;44.024;20.456;2022-11-11T06:43:23;23.42;;;16.13;;
66169;SDS011;52971;44.024;20.456;2022-11-11T06:45:49;22.60;;;15.30;;
66169;SDS011;52971;44.024;20.456;2022-11-11T06:48:16;18.88;;;13.07;;
66169;SDS011;52971;44.024;20.456;2022-11-11T06:50:42;24.50;;;14.68;;
66169;SDS011;52971;44.024;20.456;2022-11-11T06:53:08;22.05;;;14.02;;
66169;SDS011;52971;44.024;20.456;2022-11-11T06:55:35;24.10;;;15.85;;
66169;SDS011;52971;44.024;20.456;2022-11-11T06:58:08;24.08;;;13.32;;
66169;SDS011;52971;44.024;20.456;2022-11-11T07:00:35;20.98;;;13.93;;
66169;SDS011;52971;44.024;20.456;2022-11-11T07:03:02;23.67;;;14.20;;
66169;SDS011;52971;44.024;20.456;2022-11-11T07:05:28;24.80;;;14.18;;
66169;SDS011;52971;44.024;20.456;2022-11-11T07:07:53;26.02;;;15.95;;
66169;SDS011;52971;44.024;20.456;2022-11-11T07:10:20;28.73;;;17.90;;
66169;SDS011;52971;44.024;20.456;2022-11-11T07:12:46;34.47;;;22.80;;
66169;SDS011;52971;44.024;20.456;2022-11-11T07:15:11;39.10;;;25.10;;
66169;SDS011;52971;44.024;20.456;2022-11-11T07:17:37;27.90;;;19.33;;
66169;SDS011;52971;44.024;20.456;2022-11-11T07:20:03;27.27;;;18.45;;
66169;SDS011;52971;44.024;20.456;2022-11-11T07:22:28;31.63;;;19.17;;
66169;SDS011;52971;44.024;20.456;2022-11-11T07:24:54;22.80;;;15.52;;
66169;SDS011;52971;44.024;20.456;2022-11-11T07:27:19;39.10;;;22.67;;
66169;SDS011;52971;44.024;20.456;2022-11-11T07:29:45;28.08;;;20.38;;
66169;SDS011;52971;44.024;20.456;2022-11-11T07:32:14;22.38;;;15.43;;
66169;SDS011;52971;44.024;20.456;2022-11-11T07:34:41;24.30;;;16.23;;
66169;SDS011;52971;44.024;20.456;2022-11-11T07:37:08;29.10;;;18.25;;
66169;SDS011;52971;44.024;20.456;2022-11-11T07:39:34;28.73;;;18.10;;
66169;SDS011;52971;44.024;20.456;2022-11-11T07:41:59;42.95;;;30.10;;
66169;SDS011;52971;44.024;20.456;2022-11-11T07:44:25;28.48;;;17.27;;
66169;SDS011;52971;44.024;20.456;2022-11-11T07:46:51;34.17;;;18.60;;
66169;SDS011;52971;44.024;20.456;2022-11-11T07:49:16;25.70;;;16.13;;
66169;SDS011;52971;44.024;20.456;2022-11-11T07:51:41;24.75;;;15.50;;
66169;SDS011;52971;44.024;20.456;2022-11-11T07:54:07;26.30;;;16.48;;
66169;SDS011;52971;44.024;20.456;2022-11-11T07:56:32;29.50;;;18.27;;
66169;SDS011;52971;44.024;20.456;2022-11-11T07:58:58;30.08;;;18.95;;
66169;SDS011;52971;44.024;20.456;2022-11-11T08:01:23;26.60;;;16.92;;
66169;SDS011;52971;44.024;20.456;2022-11-11T08:03:49;33.55;;;20.55;;
66169;SDS011;52971;44.024;20.456;2022-11-11T08:06:15;29.13;;;19.00;;
66169;SDS011;52971;44.024;20.456;2022-11-11T08:08:42;27.65;;;18.05;;
66169;SDS011;52971;44.024;20.456;2022-11-11T08:11:08;29.67;;;18.95;;
66169;SDS011;52971;44.024;20.456;2022-11-11T08:13:33;29.90;;;18.05;;
66169;SDS011;52971;44.024;20.456;2022-11-11T08:16:11;28.85;;;19.17;;
66169;SDS011;52971;44.024;20.456;2022-11-11T08:18:39;35.00;;;21.67;;
66169;SDS011;52971;44.024;20.456;2022-11-11T08:21:05;29.52;;;18.67;;
66169;SDS011;52971;44.024;20.456;2022-11-11T08:23:31;30.92;;;20.00;;
66169;SDS011;52971;44.024;20.456;2022-11-11T08:26:01;27.83;;;18.98;;
66169;SDS011;52971;44.024;20.456;2022-11-11T08:28:29;21.60;;;14.48;;
66169;SDS011;52971;44.024;20.456;2022-11-11T08:30:59;24.23;;;15.50;;
66169;SDS011;52971;44.024;20.456;2022-11-11T08:33:25;27.30;;;14.77;;
66169;SDS011;52971;44.024;20.456;2022-11-11T08:35:51;23.23;;;15.43;;
66169;SDS011;52971;44.024;20.456;2022-11-11T08:38:18;26.38;;;16.67;;
66169;SDS011;52971;44.024;20.456;2022-11-11T08:40:45;24.00;;;17.00;;
66169;SDS011;52971;44.024;20.456;2022-11-11T08:43:11;23.90;;;13.77;;
66169;SDS011;52971;44.024;20.456;2022-11-11T08:45:36;27.35;;;15.35;;
66169;SDS011;52971;44.024;20.456;2022-11-11T08:48:02;24.92;;;14.90;;
66169;SDS011;52971;44.024;20.456;2022-11-11T08:50:28;23.10;;;14.70;;
66169;SDS011;52971;44.024;20.456;2022-11-11T08:52:53;26.67;;;14.98;;
66169;SDS011;52971;44.024;20.456;2022-11-11T08:55:18;22.17;;;14.80;;
66169;SDS011;52971;44.024;20.456;2022-11-11T08:57:44;26.08;;;16.08;;
66169;SDS011;52971;44.024;20.456;2022-11-11T09:00:10;26.90;;;16.20;;
66169;SDS011;52971;44.024;20.456;2022-11-11T09:02:36;32.65;;;18.23;;
66169;SDS011;52971;44.024;20.456;2022-11-11T09:05:03;27.27;;;17.65;;
66169;SDS011;52971;44.024;20.456;2022-11-11T09:07:28;27.02;;;18.00;;
66169;SDS011;52971;44.024;20.456;2022-11-11T09:09:54;26.38;;;17.98;;
66169;SDS011;52971;44.024;20.456;2022-11-11T09:12:20;24.50;;;17.27;;
66169;SDS011;52971;44.024;20.456;2022-11-11T09:14:45;29.35;;;17.65;;
66169;SDS011;52971;44.024;20.456;2022-11-11T09:17:12;29.33;;;19.60;;
66169;SDS011;52971;44.024;20.456;2022-11-11T09:19:37;33.35;;;18.75;;
66169;SDS011;52971;44.024;20.456;2022-11-11T09:22:03;21.25;;;15.95;;
66169;SDS011;52971;44.024;20.456;2022-11-11T09:24:29;25.77;;;17.35;;
66169;SDS011;52971;44.024;20.456;2022-11-11T09:26:55;31.17;;;17.42;;
66169;SDS011;52971;44.024;20.456;2022-11-11T09:29:20;31.17;;;21.70;;
66169;SDS011;52971;44.024;20.456;2022-11-11T09:31:46;28.70;;;20.40;;
66169;SDS011;52971;44.024;20.456;2022-11-11T09:34:12;29.08;;;21.27;;
66169;SDS011;52971;44.024;20.456;2022-11-11T09:36:38;24.85;;;16.70;;
66169;SDS011;52971;44.024;20.456;2022-11-11T09:39:04;25.02;;;17.00;;
66169;SDS011;52971;44.024;20.456;2022-11-11T09:46:47;20.23;;;12.80;;
66169;SDS011;52971;44.024;20.456;2022-11-11T10:00:50;16.60;;;11.50;;
66169;SDS011;52971;44.024;20.456;2022-11-11T10:05:38;19.83;;;13.23;;
66169;SDS011;52971;44.024;20.456;2022-11-11T10:23:32;17.55;;;12.80;;
66169;SDS011;52971;44.024;20.456;2022-11-11T10:26:02;19.80;;;12.43;;
66169;SDS011;52971;44.024;20.456;2022-11-11T10:28:36;18.23;;;11.02;;
66169;SDS011;52971;44.024;20.456;2022-11-11T10:31:02;18.73;;;11.93;;
66169;SDS011;52971;44.024;20.456;2022-11-11T10:33:53;18.38;;;11.38;;
66169;SDS011;52971;44.024;20.456;2022-11-11T10:36:37;15.70;;;10.32;;
66169;SDS011;52971;44.024;20.456;2022-11-11T10:39:12;14.05;;;10.20;;
66169;SDS011;52971;44.024;20.456;2022-11-11T10:41:45;15.82;;;10.25;;
66169;SDS011;52971;44.024;20.456;2022-11-11T10:44:26;14.32;;;9.60;;
66169;SDS011;52971;44.024;20.456;2022-11-11T10:52:32;19.58;;;13.98;;
66169;SDS011;52971;44.024;20.456;2022-11-11T10:55:24;17.40;;;13.40;;
66169;SDS011;52971;44.024;20.456;2022-11-11T10:57:56;13.35;;;7.68;;
66169;SDS011;52971;44.024;20.456;2022-11-11T11:00:28;11.43;;;8.05;;
66169;SDS011;52971;44.024;20.456;2022-11-11T11:05:55;14.60;;;9.32;;
66169;SDS011;52971;44.024;20.456;2022-11-11T11:08:28;12.43;;;8.45;;
66169;SDS011;52971;44.024;20.456;2022-11-11T11:10:59;13.30;;;8.82;;
66169;SDS011;52971;44.024;20.456;2022-11-11T11:14:12;16.65;;;11.65;;
66169;SDS011;52971;44.024;20.456;2022-11-11T11:16:22;12.82;;;9.05;;
66169;SDS011;52971;44.024;20.456;2022-11-11T11:31:52;14.55;;;10.77;;
66169;SDS011;52971;44.024;20.456;2022-11-11T11:34:18;15.63;;;11.23;;
66169;SDS011;52971;44.024;20.456;2022-11-11T11:36:50;17.17;;;9.98;;
66169;SDS011;52971;44.024;20.456;2022-11-11T11:39:33;20.52;;;11.93;;
66169;SDS011;52971;44.024;20.456;2022-11-11T11:42:00;19.05;;;12.18;;
66169;SDS011;52971;44.024;20.456;2022-11-11T11:44:32;21.52;;;12.48;;
66169;SDS011;52971;44.024;20.456;2022-11-11T11:47:11;15.13;;;10.98;;
66169;SDS011;52971;44.024;20.456;2022-11-11T11:52:29;13.63;;;8.45;;
66169;SDS011;52971;44.024;20.456;2022-11-11T12:00:17;18.10;;;11.80;;
66169;SDS011;52971;44.024;20.456;2022-11-11T12:05:39;38.28;;;23.77;;
66169;SDS011;52971;44.024;20.456;2022-11-11T12:11:14;60.05;;;36.90;;
66169;SDS011;52971;44.024;20.456;2022-11-11T12:16:34;30.58;;;17.10;;
66169;SDS011;52971;44.024;20.456;2022-11-11T12:19:19;23.60;;;14.38;;
66169;SDS011;52971;44.024;20.456;2022-11-11T12:24:53;29.38;;;20.23;;
66169;SDS011;52971;44.024;20.456;2022-11-11T12:27:47;21.85;;;13.30;;
66169;SDS011;52971;44.024;20.456;2022-11-11T12:30:20;15.97;;;10.27;;
66169;SDS011;52971;44.024;20.456;2022-11-11T12:44:05;16.10;;;10.27;;
66169;SDS011;52971;44.024;20.456;2022-11-11T12:49:37;18.02;;;10.60;;
66169;SDS011;52971;44.024;20.456;2022-11-11T12:57:53;13.88;;;9.48;;
66169;SDS011;52971;44.024;20.456;2022-11-11T13:00:28;15.80;;;10.50;;
66169;SDS011;52971;44.024;20.456;2022-11-11T13:16:41;23.80;;;17.17;;
66169;SDS011;52971;44.024;20.456;2022-11-11T13:51:57;35.60;;;22.15;;
66169;SDS011;52971;44.024;20.456;2022-11-11T13:54:26;43.88;;;26.75;;
66169;SDS011;52971;44.024;20.456;2022-11-11T13:57:02;33.05;;;22.38;;
66169;SDS011;52971;44.024;20.456;2022-11-11T13:59:41;31.65;;;20.83;;
66169;SDS011;52971;44.024;20.456;2022-11-11T14:12:41;27.58;;;16.27;;
66169;SDS011;52971;44.024;20.456;2022-11-11T14:15:54;23.65;;;17.20;;
66169;SDS011;52971;44.024;20.456;2022-11-11T14:17:58;22.90;;;14.27;;
66169;SDS011;52971;44.024;20.456;2022-11-11T14:25:40;29.25;;;18.55;;
66169;SDS011;52971;44.024;20.456;2022-11-11T14:28:22;28.08;;;18.73;;
66169;SDS011;52971;44.024;20.456;2022-11-11T14:30:53;24.88;;;17.48;;
66169;SDS011;52971;44.024;20.456;2022-11-11T14:47:53;33.10;;;21.10;;
66169;SDS011;52971;44.024;20.456;2022-11-11T14:53:00;45.65;;;23.08;;
66169;SDS011;52971;44.024;20.456;2022-11-11T14:55:33;39.55;;;25.95;;
66169;SDS011;52971;44.024;20.456;2022-11-11T15:06:10;43.00;;;23.95;;
66169;SDS011;52971;44.024;20.456;2022-11-11T15:16:57;39.13;;;26.80;;
66169;SDS011;52971;44.024;20.456;2022-11-11T15:36:51;56.08;;;37.10;;
66169;SDS011;52971;44.024;20.456;2022-11-11T15:39:21;57.30;;;38.25;;
66169;SDS011;52971;44.024;20.456;2022-11-11T15:41:50;52.63;;;36.05;;
66169;SDS011;52971;44.024;20.456;2022-11-11T15:44:27;51.47;;;37.53;;
66169;SDS011;52971;44.024;20.456;2022-11-11T16:37:51;68.72;;;48.70;;
66169;SDS011;52971;44.024;20.456;2022-11-11T17:00:50;102.35;;;71.35;;
66169;SDS011;52971;44.024;20.456;2022-11-11T17:03:24;99.63;;;68.07;;
66169;SDS011;52971;44.024;20.456;2022-11-11T17:06:00;100.35;;;70.22;;
66169;SDS011;52971;44.024;20.456;2022-11-11T17:08:33;95.07;;;71.07;;
66169;SDS011;52971;44.024;20.456;2022-11-11T17:11:03;102.50;;;74.47;;
66169;SDS011;52971;44.024;20.456;2022-11-11T17:13:29;94.07;;;67.55;;
66169;SDS011;52971;44.024;20.456;2022-11-11T17:15:58;96.43;;;69.78;;
66169;SDS011;52971;44.024;20.456;2022-11-11T17:18:28;98.30;;;69.43;;
66169;SDS011;52971;44.024;20.456;2022-11-11T17:20:56;94.85;;;65.50;;
66169;SDS011;52971;44.024;20.456;2022-11-11T17:23:22;92.03;;;64.63;;
66169;SDS011;52971;44.024;20.456;2022-11-11T17:25:48;92.80;;;66.38;;
66169;SDS011;52971;44.024;20.456;2022-11-11T17:28:13;105.97;;;75.80;;
66169;SDS011;52971;44.024;20.456;2022-11-11T17:30:38;116.88;;;80.35;;
66169;SDS011;52971;44.024;20.456;2022-11-11T17:33:04;125.38;;;86.57;;
66169;SDS011;52971;44.024;20.456;2022-11-11T17:35:29;147.60;;;106.35;;
66169;SDS011;52971;44.024;20.456;2022-11-11T17:37:55;138.38;;;95.75;;
66169;SDS011;52971;44.024;20.456;2022-11-11T17:40:20;133.20;;;91.35;;
66169;SDS011;52971;44.024;20.456;2022-11-11T17:42:46;124.22;;;84.90;;
66169;SDS011;52971;44.024;20.456;2022-11-11T17:45:12;109.97;;;79.38;;
66169;SDS011;52971;44.024;20.456;2022-11-11T17:47:37;120.05;;;81.15;;
66169;SDS011;52971;44.024;20.456;2022-11-11T17:50:03;157.43;;;101.18;;
66169;SDS011;52971;44.024;20.456;2022-11-11T17:52:28;139.73;;;92.22;;
66169;SDS011;52971;44.024;20.456;2022-11-11T17:54:54;164.05;;;100.30;;
66169;SDS011;52971;44.024;20.456;2022-11-11T17:57:19;169.98;;;103.93;;
66169;SDS011;52971;44.024;20.456;2022-11-11T17:59:45;159.20;;;102.10;;
66169;SDS011;52971;44.024;20.456;2022-11-11T18:02:10;178.13;;;109.95;;
66169;SDS011;52971;44.024;20.456;2022-11-11T18:04:37;178.00;;;113.18;;
66169;SDS011;52971;44.024;20.456;2022-11-11T18:07:02;181.27;;;114.13;;
66169;SDS011;52971;44.024;20.456;2022-11-11T18:09:28;172.63;;;111.88;;
66169;SDS011;52971;44.024;20.456;2022-11-11T18:11:53;170.13;;;109.97;;
66169;SDS011;52971;44.024;20.456;2022-11-11T18:14:19;200.52;;;124.15;;
66169;SDS011;52971;44.024;20.456;2022-11-11T18:16:44;208.23;;;126.10;;
66169;SDS011;52971;44.024;20.456;2022-11-11T18:19:10;193.57;;;119.07;;
66169;SDS011;52971;44.024;20.456;2022-11-11T18:21:35;191.05;;;113.95;;
66169;SDS011;52971;44.024;20.456;2022-11-11T18:24:04;180.60;;;108.95;;
66169;SDS011;52971;44.024;20.456;2022-11-11T18:26:30;170.55;;;104.88;;
66169;SDS011;52971;44.024;20.456;2022-11-11T18:28:56;168.55;;;102.38;;
66169;SDS011;52971;44.024;20.456;2022-11-11T18:31:22;146.63;;;94.63;;
66169;SDS011;52971;44.024;20.456;2022-11-11T18:33:47;142.57;;;94.85;;
66169;SDS011;52971;44.024;20.456;2022-11-11T18:36:13;132.75;;;87.05;;
66169;SDS011;52971;44.024;20.456;2022-11-11T18:38:41;141.25;;;89.47;;
66169;SDS011;52971;44.024;20.456;2022-11-11T18:41:08;112.30;;;73.85;;
66169;SDS011;52971;44.024;20.456;2022-11-11T18:43:36;107.28;;;71.10;;
66169;SDS011;52971;44.024;20.456;2022-11-11T18:46:12;124.78;;;83.13;;
66169;SDS011;52971;44.024;20.456;2022-11-11T18:48:42;122.50;;;79.75;;
66169;SDS011;52971;44.024;20.456;2022-11-11T18:51:08;107.50;;;72.15;;
66169;SDS011;52971;44.024;20.456;2022-11-11T18:53:35;126.68;;;81.40;;
66169;SDS011;52971;44.024;20.456;2022-11-11T18:56:03;115.97;;;74.18;;
66169;SDS011;52971;44.024;20.456;2022-11-11T18:58:39;121.65;;;76.78;;
66169;SDS011;52971;44.024;20.456;2022-11-11T19:01:09;112.93;;;70.72;;
66169;SDS011;52971;44.024;20.456;2022-11-11T19:03:37;103.47;;;69.43;;
66169;SDS011;52971;44.024;20.456;2022-11-11T19:06:08;103.05;;;70.07;;
66169;SDS011;52971;44.024;20.456;2022-11-11T19:08:35;107.78;;;70.03;;
66169;SDS011;52971;44.024;20.456;2022-11-11T19:11:01;111.32;;;71.70;;
66169;SDS011;52971;44.024;20.456;2022-11-11T19:13:28;111.97;;;76.20;;
66169;SDS011;52971;44.024;20.456;2022-11-11T19:15:53;125.20;;;83.68;;
66169;SDS011;52971;44.024;20.456;2022-11-11T19:18:20;357.95;;;189.65;;
66169;SDS011;52971;44.024;20.456;2022-11-11T19:20:46;351.13;;;182.43;;
66169;SDS011;52971;44.024;20.456;2022-11-11T19:23:11;223.85;;;125.30;;
66169;SDS011;52971;44.024;20.456;2022-11-11T19:25:37;217.68;;;125.35;;
66169;SDS011;52971;44.024;20.456;2022-11-11T19:28:02;253.65;;;137.70;;
66169;SDS011;52971;44.024;20.456;2022-11-11T19:30:29;173.23;;;101.85;;
66169;SDS011;52971;44.024;20.456;2022-11-11T19:32:55;247.98;;;128.02;;